Time;durP1;ratioP1;P1;durP2;ratioP2;P2;SDS_P1;SDS_P2;PMS_P1;PMS_P2;Temp;Humidity;BMP_temperature;BMP_pressure;BME280_temperature;BME280_humidity;BME280_pressure;Samples;Min_cycle;Max_cycle;Signal;HPM_P1;HPM_P2
2021/06/25 00:01:24;;;;;;;9.55;6.80;;;14.40;99.90;;;;;;4933873;29;20075;-91
2021/06/25 00:03:51;;;;;;;8.70;6.35;;;14.40;99.90;;;;;;4950224;29;20059;-88
2021/06/25 00:06:18;;;;;;;7.93;6.28;;;14.40;99.90;;;;;;4948212;29;20067;-93
2021/06/25 00:08:45;;;;;;;9.02;5.75;;;14.40;99.90;;;;;;4940939;28;20151;-93
2021/06/25 00:11:12;;;;;;;7.22;5.68;;;14.30;99.90;;;;;;4929598;29;20071;-91
2021/06/25 00:14:01;;;;;;;6.28;5.53;;;14.30;99.90;;;;;;4941422;29;20127;-93
2021/06/25 00:16:45;;;;;;;6.03;4.93;;;14.30;99.90;;;;;;4951354;29;20058;-94
2021/06/25 00:19:35;;;;;;;5.97;4.75;;;14.30;99.90;;;;;;4828120;29;20144;-93
2021/06/25 00:22:02;;;;;;;5.65;4.68;;;14.20;99.90;;;;;;4840215;29;20059;-91
2021/06/25 00:24:34;;;;;;;8.38;5.07;;;14.20;99.90;;;;;;4855471;29;20049;-92
2021/06/25 00:27:17;;;;;;;7.25;5.65;;;14.20;99.90;;;;;;4855404;29;20146;-93
2021/06/25 00:29:46;;;;;;;6.28;5.15;;;14.20;99.90;;;;;;4840603;29;20057;-91
2021/06/25 00:32:13;;;;;;;7.60;4.60;;;14.20;99.90;;;;;;4840545;29;20073;-91
2021/06/25 00:34:41;;;;;;;6.38;4.43;;;14.20;99.90;;;;;;4853870;29;20056;-91
2021/06/25 00:37:12;;;;;;;8.18;4.63;;;14.20;99.90;;;;;;4893322;29;20114;-93
2021/06/25 00:39:38;;;;;;;5.68;4.40;;;14.10;99.90;;;;;;4955824;28;20473;-92
2021/06/25 00:42:34;;;;;;;5.25;3.95;;;14.10;99.90;;;;;;4954451;29;20051;-92
2021/06/25 00:45:19;;;;;;;4.72;4.10;;;14.10;99.90;;;;;;4936862;29;20044;-92
2021/06/25 00:48:07;;;;;;;4.18;3.42;;;14.10;99.90;;;;;;4948881;29;20059;-90
2021/06/25 00:50:38;;;;;;;3.05;2.85;;;14.10;99.90;;;;;;4951771;29;20062;-92
2021/06/25 00:53:10;;;;;;;3.50;2.92;;;14.00;99.90;;;;;;4954010;29;20078;-91
2021/06/25 00:55:44;;;;;;;3.60;2.97;;;14.00;99.90;;;;;;4938485;29;20079;-91
2021/06/25 00:58:17;;;;;;;3.35;2.65;;;14.00;99.90;;;;;;4936846;29;20090;-90
2021/06/25 01:00:47;;;;;;;3.35;2.80;;;14.00;99.90;;;;;;4953057;29;20070;-92
2021/06/25 01:03:35;;;;;;;4.85;3.17;;;14.00;99.90;;;;;;4931477;29;20055;-92
2021/06/25 01:06:05;;;;;;;3.40;3.00;;;14.00;99.90;;;;;;4905871;29;20058;-92
2021/06/25 01:08:32;;;;;;;3.80;3.40;;;14.00;99.90;;;;;;4912576;29;20881;-91
2021/06/25 01:11:00;;;;;;;5.97;3.70;;;14.00;99.90;;;;;;4928718;29;20123;-91
2021/06/25 01:13:28;;;;;;;5.25;4.38;;;14.00;99.90;;;;;;4914666;29;20048;-91
2021/06/25 01:15:55;;;;;;;4.78;3.90;;;14.00;99.90;;;;;;4922075;29;20055;-91
2021/06/25 01:18:22;;;;;;;6.63;4.93;;;14.00;99.90;;;;;;4919399;29;20464;-91
2021/06/25 01:20:49;;;;;;;5.38;4.85;;;14.00;99.90;;;;;;4892745;29;20078;-90
2021/06/25 01:23:16;;;;;;;6.55;5.57;;;14.00;99.90;;;;;;4929481;29;20154;-92
2021/06/25 01:25:44;;;;;;;6.78;5.25;;;14.00;99.90;;;;;;4919257;29;20119;-91
2021/06/25 01:28:11;;;;;;;9.13;6.38;;;14.00;99.90;;;;;;4928684;29;20535;-91
2021/06/25 01:30:43;;;;;;;9.23;6.55;;;14.10;99.90;;;;;;4931435;29;20420;-91
2021/06/25 01:33:13;;;;;;;8.13;6.30;;;14.00;99.90;;;;;;4923199;29;20071;-89
2021/06/25 01:35:45;;;;;;;9.07;6.50;;;14.00;99.90;;;;;;4944865;28;20458;-92
2021/06/25 01:38:23;;;;;;;7.93;6.97;;;14.10;99.90;;;;;;4952566;28;20051;-93
2021/06/25 01:40:53;;;;;;;11.80;6.90;;;14.10;99.90;;;;;;4947736;28;20067;-89
2021/06/25 01:43:28;;;;;;;10.65;7.70;;;14.10;99.90;;;;;;4953224;28;20058;-90
2021/06/25 01:45:56;;;;;;;9.10;7.60;;;14.10;99.90;;;;;;4947973;29;20109;-88
2021/06/25 01:48:23;;;;;;;11.32;7.88;;;14.10;99.90;;;;;;4953154;28;20194;-90
2021/06/25 01:50:51;;;;;;;10.80;7.38;;;14.10;99.90;;;;;;4936958;29;20085;-89
2021/06/25 01:53:18;;;;;;;11.43;9.32;;;14.10;99.90;;;;;;4938524;29;20152;-90
2021/06/25 01:55:47;;;;;;;13.65;9.30;;;14.10;99.90;;;;;;4956458;28;20047;-91
2021/06/25 01:58:36;;;;;;;11.60;8.70;;;14.00;99.90;;;;;;4950306;29;20673;-90
2021/06/25 02:01:14;;;;;;;16.02;9.57;;;14.00;99.90;;;;;;4948670;28;20043;-91
2021/06/25 02:03:45;;;;;;;16.83;10.43;;;14.00;99.90;;;;;;4947472;29;20411;-92
2021/06/25 02:06:15;;;;;;;16.13;10.30;;;14.00;99.90;;;;;;4941670;29;20058;-89
2021/06/25 02:08:43;;;;;;;14.88;10.27;;;13.90;99.90;;;;;;4954261;29;20058;-91
2021/06/25 02:11:23;;;;;;;12.30;10.40;;;14.00;99.90;;;;;;4946898;28;20059;-92
2021/06/25 02:13:50;;;;;;;18.23;10.73;;;13.90;99.90;;;;;;4946222;29;20051;-90
2021/06/25 02:16:17;;;;;;;16.58;10.57;;;13.90;99.90;;;;;;4934773;29;20059;-91
2021/06/25 02:18:44;;;;;;;12.85;10.13;;;13.90;99.90;;;;;;4943044;28;20100;-92
2021/06/25 02:21:12;;;;;;;16.92;10.38;;;13.90;99.90;;;;;;4926837;29;20039;-91
2021/06/25 02:23:39;;;;;;;19.23;10.80;;;13.90;99.90;;;;;;4952093;29;20089;-90
2021/06/25 02:26:06;;;;;;;13.25;9.77;;;13.90;99.90;;;;;;4943917;28;20047;-91
2021/06/25 02:28:33;;;;;;;10.25;8.43;;;13.90;99.90;;;;;;4935918;29;20043;-90
2021/06/25 02:31:01;;;;;;;11.68;8.98;;;13.90;99.90;;;;;;4933037;29;20127;-89
2021/06/25 02:33:28;;;;;;;11.65;8.90;;;13.90;99.90;;;;;;4934833;29;20066;-90
2021/06/25 02:35:55;;;;;;;9.57;8.27;;;13.90;99.90;;;;;;4936279;29;20053;-90
2021/06/25 02:38:23;;;;;;;13.05;9.60;;;13.90;99.90;;;;;;4952710;29;20447;-92
2021/06/25 02:40:56;;;;;;;11.45;8.32;;;13.90;99.90;;;;;;4929943;29;20051;-89
2021/06/25 02:43:24;;;;;;;10.95;9.20;;;13.80;99.90;;;;;;4950305;29;20098;-90
2021/06/25 02:45:51;;;;;;;12.68;9.00;;;13.90;99.90;;;;;;4946842;29;20178;-89
2021/06/25 02:48:18;;;;;;;14.40;9.85;;;13.90;99.90;;;;;;4952757;28;20524;-90
2021/06/25 02:50:46;;;;;;;10.15;9.00;;;13.90;99.90;;;;;;4941396;28;20062;-91
2021/06/25 02:53:13;;;;;;;12.88;8.30;;;13.90;99.90;;;;;;4949418;28;20058;-90
2021/06/25 02:55:52;;;;;;;13.63;8.73;;;13.90;99.90;;;;;;4946780;28;20056;-90
2021/06/25 02:58:24;;;;;;;11.55;8.40;;;13.90;99.90;;;;;;4943764;28;20087;-90
2021/06/25 03:00:53;;;;;;;15.88;9.25;;;13.90;99.90;;;;;;4952420;28;20130;-89
2021/06/25 03:03:20;;;;;;;13.30;8.80;;;13.90;99.90;;;;;;4941222;29;20189;-88
2021/06/25 03:05:52;;;;;;;11.38;8.13;;;13.90;99.90;;;;;;4952633;28;20162;-90
2021/06/25 03:08:20;;;;;;;12.18;8.00;;;13.90;99.90;;;;;;4947681;28;20161;-90
2021/06/25 03:10:49;;;;;;;9.73;7.47;;;13.90;99.90;;;;;;4946953;29;20122;-90
2021/06/25 03:13:17;;;;;;;7.55;6.57;;;14.00;99.90;;;;;;4949420;28;20482;-89
2021/06/25 03:15:45;;;;;;;10.93;6.90;;;14.00;99.90;;;;;;4945265;29;20130;-89
2021/06/25 03:18:14;;;;;;;7.90;6.50;;;14.00;99.90;;;;;;4942825;28;20044;-91
2021/06/25 03:20:42;;;;;;;8.55;6.28;;;14.00;99.90;;;;;;4953016;28;20126;-89
2021/06/25 03:23:11;;;;;;;7.43;6.40;;;14.00;99.90;;;;;;4952615;28;20087;-91
2021/06/25 03:25:49;;;;;;;7.30;5.57;;;13.90;99.90;;;;;;4954836;28;20051;-92
2021/06/25 03:29:02;;;;;;;11.50;6.32;;;13.90;99.90;;;;;;4919482;29;20508;-90
2021/06/25 03:31:34;;;;;;;7.53;6.45;;;13.90;99.90;;;;;;4923336;29;20120;-89
2021/06/25 03:34:01;;;;;;;10.07;6.45;;;13.90;99.90;;;;;;4914269;29;20132;-90
2021/06/25 03:36:29;;;;;;;15.43;6.82;;;13.80;99.90;;;;;;4932084;29;20421;-89
2021/06/25 03:38:55;;;;;;;12.48;7.00;;;13.80;99.90;;;;;;4911756;29;20488;-90
2021/06/25 03:41:23;;;;;;;10.48;7.68;;;13.80;99.90;;;;;;4931651;29;20051;-91
2021/06/25 03:43:51;;;;;;;12.20;7.88;;;13.80;99.90;;;;;;4927373;29;20067;-89
2021/06/25 03:46:20;;;;;;;10.80;7.47;;;13.80;99.90;;;;;;4915427;29;20086;-91
2021/06/25 03:48:47;;;;;;;12.27;7.72;;;13.80;99.90;;;;;;4925923;29;20048;-91
2021/06/25 03:51:14;;;;;;;11.73;8.07;;;13.80;99.90;;;;;;4915306;29;20150;-89
2021/06/25 03:53:48;;;;;;;9.80;8.10;;;13.80;99.90;;;;;;4928605;29;20096;-91
2021/06/25 03:56:18;;;;;;;10.65;7.70;;;13.80;99.90;;;;;;4926880;29;20083;-91
2021/06/25 03:58:52;;;;;;;15.02;8.07;;;13.80;99.90;;;;;;4908723;29;20132;-92
2021/06/25 04:01:23;;;;;;;17.20;7.93;;;13.80;99.90;;;;;;4953074;28;21304;-91
2021/06/25 04:03:51;;;;;;;13.60;8.18;;;13.80;99.90;;;;;;4946609;28;20074;-91
2021/06/25 04:06:26;;;;;;;9.00;7.70;;;13.80;99.90;;;;;;4936993;29;20051;-91
2021/06/25 04:09:19;;;;;;;;;;;;;;;;;;;;;
2021/06/25 04:50:45;;;;;;;5.95;4.45;;;13.90;99.90;;;;;;4974431;28;20054;-91
2021/06/25 04:53:41;;;;;;;4.63;4.22;;;13.90;99.90;;;;;;4973870;28;20138;-90
2021/06/25 05:08:53;;;;;;;3.53;2.70;;;14.00;99.90;;;;;;4800078;29;20046;-92
2021/06/25 05:12:15;;;;;;;;;;;;;;;;;;;;;
2021/06/25 05:15:20;;;;;;;3.40;1.90;;;14.00;99.90;;;;;;4862762;29;20049;-92
2021/06/25 05:25:38;;;;;;;;;;;13.90;99.90;;;;;;4874012;29;20067;-92
2021/06/25 05:28:05;;;;;;;2.17;2.00;;;14.00;99.90;;;;;;4960491;28;19961;-91
2021/06/25 05:30:33;;;;;;;2.85;2.55;;;13.90;99.90;;;;;;4968445;28;20047;-91
2021/06/25 05:33:39;;;;;;;2.47;2.20;;;13.90;99.90;;;;;;4970840;28;20134;-91
2021/06/25 05:36:19;;;;;;;7.55;2.85;;;13.90;99.90;;;;;;4971356;28;20086;-90
2021/06/25 05:38:59;;;;;;;4.25;2.40;;;14.00;99.90;;;;;;4975632;28;20474;-92
2021/06/25 05:41:26;;;;;;;4.18;2.65;;;14.00;99.90;;;;;;4978296;28;20130;-92
2021/06/25 05:47:26;;;;;;;3.65;2.40;;;14.10;99.90;;;;;;4983000;28;20053;-91
2021/06/25 06:03:48;;;;;;;2.95;1.65;;;14.60;99.90;;;;;;4975031;28;20063;-94
2021/06/25 06:06:38;;;;;;;;;;;;;;;;;;;;;
2021/06/25 06:09:41;;;;;;;1.40;1.30;;;14.80;99.90;;;;;;4975591;28;20070;-92
2021/06/25 06:15:35;;;;;;;2.13;1.92;;;14.80;99.90;;;;;;4902880;29;20197;-92
2021/06/25 06:32:24;;;;;;;2.05;1.85;;;14.80;99.90;;;;;;4912607;29;20059;-92
2021/06/25 06:54:29;;;;;;;3.05;2.25;;;14.70;99.90;;;;;;4865944;29;20159;-94
2021/06/25 07:00:42;;;;;;;4.32;2.55;;;14.80;99.90;;;;;;4904576;29;20060;-91
2021/06/25 07:03:26;;;;;;;9.88;2.50;;;14.80;99.90;;;;;;4919565;29;20464;-91
2021/06/25 07:06:17;;;;;;;4.20;2.13;;;14.90;99.90;;;;;;4928969;29;20047;-92
2021/06/25 07:09:08;;;;;;;4.97;2.42;;;15.00;99.90;;;;;;4852823;29;20406;-92
2021/06/25 07:11:37;;;;;;;3.58;2.60;;;15.10;99.90;;;;;;4874562;29;20132;-91
2021/06/25 07:14:10;;;;;;;2.58;2.00;;;15.20;99.90;;;;;;4860119;29;20461;-89
2021/06/25 07:16:53;;;;;;;3.30;1.60;;;15.30;99.90;;;;;;4874469;29;20144;-93
2021/06/25 07:19:42;;;;;;;3.20;1.50;;;15.40;99.90;;;;;;4880754;29;20059;-91
2021/06/25 07:25:36;;;;;;;1.20;1.10;;;15.60;99.90;;;;;;4883374;29;20056;-92
2021/06/25 07:28:10;;;;;;;1.80;1.15;;;15.80;99.90;;;;;;4914027;29;20048;-93
2021/06/25 07:30:59;;;;;;;1.70;1.25;;;16.00;99.90;;;;;;4897678;29;20060;-93
2021/06/25 07:33:56;;;;;;;;;;;;;;;;;;;;;
2021/06/25 07:36:34;;;;;;;1.10;1.00;;;16.10;99.90;;;;;;4960605;28;21791;-92
2021/06/25 07:39:15;;;;;;;1.20;1.00;;;16.10;99.90;;;;;;4937642;29;20047;-92
2021/06/25 07:41:44;;;;;;;2.92;1.33;;;16.20;99.90;;;;;;4954872;28;20110;-94
2021/06/25 07:48:01;;;;;;;1.92;0.73;;;16.50;99.90;;;;;;4953414;28;20407;-93
2021/06/25 07:50:38;;;;;;;0.77;0.77;;;16.80;99.90;;;;;;4958148;28;20089;-90
2021/06/25 07:53:30;;;;;;;0.80;0.80;;;16.80;99.90;;;;;;4950263;29;20069;-91
2021/06/25 07:55:59;;;;;;;0.90;0.90;;;16.80;99.90;;;;;;4955945;28;20043;-93
2021/06/25 07:58:26;;;;;;;0.80;0.80;;;16.50;99.90;;;;;;4951536;28;20193;-93
2021/06/25 08:02:04;;;;;;;1.00;0.95;;;16.40;99.90;;;;;;4951789;28;20091;-93
2021/06/25 08:04:54;;;;;;;1.38;1.27;;;16.30;99.90;;;;;;4957891;28;20046;-93
2021/06/25 08:07:37;;;;;;;1.55;1.38;;;16.20;99.90;;;;;;4960012;28;20051;-92
2021/06/25 08:10:40;;;;;;;1.50;1.10;;;16.10;99.90;;;;;;4967035;28;20043;-93
2021/06/25 08:13:07;;;;;;;1.98;1.42;;;16.00;99.90;;;;;;4974550;28;20050;-90
2021/06/25 08:15:34;;;;;;;5.32;1.38;;;15.90;99.90;;;;;;4974955;28;20473;-90
2021/06/25 08:18:01;;;;;;;1.73;1.40;;;15.90;99.90;;;;;;4984424;28;20148;-91
2021/06/25 08:20:30;;;;;;;2.88;1.17;;;16.10;99.90;;;;;;4971991;28;20057;-92
2021/06/25 08:22:58;;;;;;;2.50;1.58;;;16.20;99.90;;;;;;4975425;28;20055;-92
2021/06/25 08:25:26;;;;;;;1.83;1.42;;;16.20;99.90;;;;;;4976651;28;20054;-90
2021/06/25 08:28:24;;;;;;;2.13;1.40;;;16.30;99.90;;;;;;4964679;28;20046;-92
2021/06/25 08:31:19;;;;;;;2.60;1.50;;;16.40;99.90;;;;;;4968345;28;20606;-94
2021/06/25 08:36:43;;;;;;;1.40;1.30;;;16.50;99.90;;;;;;4966568;28;20058;-93
2021/06/25 08:39:26;;;;;;;1.20;1.10;;;16.40;99.90;;;;;;4970268;28;20050;-92
2021/06/25 08:42:06;;;;;;;2.00;1.27;;;16.40;99.90;;;;;;4956998;28;20066;-91
2021/06/25 08:44:40;;;;;;;1.42;1.33;;;16.40;99.90;;;;;;4958360;28;20050;-91
2021/06/25 08:47:09;;;;;;;4.65;1.77;;;16.40;99.90;;;;;;4975087;28;20125;-90
2021/06/25 08:49:45;;;;;;;2.55;1.55;;;16.50;99.90;;;;;;4974677;28;20050;-93
2021/06/25 08:52:14;;;;;;;3.03;1.70;;;16.60;99.90;;;;;;4973457;28;20066;-92
2021/06/25 08:54:49;;;;;;;1.98;1.50;;;16.80;99.90;;;;;;4973988;28;20078;-91
2021/06/25 08:57:17;;;;;;;1.58;1.48;;;16.90;99.90;;;;;;4973731;28;20059;-91
2021/06/25 08:59:45;;;;;;;1.48;1.38;;;16.90;99.90;;;;;;4974821;28;20050;-92
2021/06/25 09:02:17;;;;;;;4.13;1.65;;;16.90;99.90;;;;;;4974912;28;20085;-93
2021/06/25 09:04:48;;;;;;;1.48;1.38;;;16.90;99.90;;;;;;4971497;28;20121;-92
2021/06/25 09:07:15;;;;;;;2.38;1.50;;;16.90;99.90;;;;;;4973508;28;20051;-91
2021/06/25 09:09:46;;;;;;;1.58;1.48;;;17.10;99.90;;;;;;4956443;28;20050;-89
2021/06/25 09:12:25;;;;;;;1.42;1.33;;;17.10;99.90;;;;;;4957120;28;20066;-90
2021/06/25 09:15:10;;;;;;;1.77;1.67;;;17.20;99.90;;;;;;4971073;28;20043;-93
2021/06/25 09:17:58;;;;;;;1.48;1.38;;;17.20;99.90;;;;;;4969623;28;20405;-91
2021/06/25 09:20:39;;;;;;;1.80;1.70;;;17.20;99.90;;;;;;4971854;28;20138;-91
2021/06/25 09:23:14;;;;;;;2.30;2.10;;;17.10;99.90;;;;;;4970370;28;20473;-91
2021/06/25 09:26:09;;;;;;;2.45;1.98;;;17.10;99.90;;;;;;4958014;28;20043;-94
2021/06/25 09:29:00;;;;;;;;;;;;;;;;;;;;;
2021/06/25 09:31:41;;;;;;;3.33;2.13;;;17.00;99.90;;;;;;4971492;28;20073;-90
2021/06/25 09:34:10;;;;;;;2.75;1.98;;;16.70;99.90;;;;;;4968563;28;20050;-91
2021/06/25 09:37:42;;;;;;;;;;;;;;;;;;;;;
2021/06/25 09:44:09;;;;;;;2.50;2.30;;;16.00;99.90;;;;;;4978153;28;20053;-93
2021/06/25 09:47:24;;;;;;;3.85;2.70;;;15.90;99.90;;;;;;4971852;28;20065;-94
2021/06/25 09:50:32;;;;;;;3.42;3.13;;;16.10;99.90;;;;;;4971603;28;20405;-94
2021/06/25 09:53:34;;;;;;;4.95;3.05;;;16.30;99.90;;;;;;4934271;29;20051;-92
2021/06/25 10:02:20;;;;;;;3.28;2.97;;;16.50;99.90;;;;;;4949526;28;20392;-91
2021/06/25 10:04:47;;;;;;;3.30;3.00;;;16.40;99.90;;;;;;4952446;29;20146;-93
2021/06/25 10:10:39;;;;;;;;;;;16.60;99.90;;;;;;4929783;29;20055;-90
2021/06/25 10:13:34;;;;;;;4.30;3.67;;;16.90;99.90;;;;;;4937131;29;19922;-93
2021/06/25 10:16:05;;;;;;;4.15;3.75;;;17.00;99.90;;;;;;4952511;29;20054;-91
2021/06/25 10:18:48;;;;;;;6.00;3.55;;;17.30;99.90;;;;;;4950827;29;20067;-91
2021/06/25 10:22:11;;;;;;;3.10;2.80;;;17.60;99.90;;;;;;4944456;29;20086;-92
2021/06/25 10:25:45;;;;;;;3.30;3.00;;;17.90;99.90;;;;;;4971791;28;20081;-92
2021/06/25 10:28:24;;;;;;;;;;;;;;;;;;;;;
2021/06/25 10:31:08;;;;;;;3.45;2.78;;;18.50;99.90;;;;;;4965333;28;20065;-89
2021/06/25 10:33:36;;;;;;;3.30;2.63;;;18.80;99.90;;;;;;4966781;28;20035;-90
2021/06/25 10:36:06;;;;;;;4.22;2.75;;;18.80;99.90;;;;;;4973084;28;20386;-90
2021/06/25 10:38:42;;;;;;;2.13;2.00;;;18.80;99.90;;;;;;4971116;28;20142;-90
2021/06/25 10:41:10;;;;;;;;;;;19.10;99.90;;;;;;4974024;28;20039;-92
2021/06/25 10:43:52;;;;;;;3.63;2.78;;;19.10;99.90;;;;;;4980741;28;19944;-93
2021/06/25 10:46:38;;;;;;;3.20;2.90;;;19.10;99.90;;;;;;4971088;28;20051;-90
2021/06/25 10:49:19;;;;;;;3.55;3.10;;;18.80;99.90;;;;;;4975241;28;20057;-94
2021/06/25 10:51:54;;;;;;;5.78;3.75;;;18.80;99.90;;;;;;4970837;28;20074;-92
2021/06/25 10:54:24;;;;;;;4.05;2.92;;;18.90;99.90;;;;;;4974601;28;20074;-92
2021/06/25 10:56:53;;;;;;;3.50;3.20;;;19.10;99.90;;;;;;4972512;28;20386;-91
2021/06/25 10:59:43;;;;;;;3.35;3.05;;;19.10;99.90;;;;;;4973732;28;20059;-92
2021/06/25 11:02:14;;;;;;;4.53;3.25;;;18.90;99.90;;;;;;4984547;28;20054;-93
2021/06/25 11:04:53;;;;;;;4.55;3.38;;;18.70;99.90;;;;;;4997986;28;20046;-93
2021/06/25 11:08:28;;;;;;;3.47;3.15;;;18.60;99.90;;;;;;4994495;28;20054;-95
2021/06/25 11:11:07;;;;;;;3.15;2.63;;;18.30;99.90;;;;;;4967802;28;20125;-93
2021/06/25 11:13:58;;;;;;;4.20;3.00;;;18.10;99.90;;;;;;4991219;28;20038;-94
2021/06/25 11:16:58;;;;;;;;;;;;;;;;;;;;;
2021/06/25 11:19:45;;;;;;;3.50;3.20;;;18.10;99.90;;;;;;4990712;28;20058;-93
2021/06/25 11:45:38;;;;;;;2.25;2.10;;;19.40;99.90;;;;;;4775059;29;20050;-91
2021/06/25 11:48:24;;;;;;;;;;;;;;;;;;;;;
2021/06/25 11:55:53;;;;;;;;;;;;;;;;;;;;;
2021/06/25 12:03:43;;;;;;;3.65;2.28;;;21.70;99.90;;;;;;4799501;29;20069;-93
2021/06/25 12:18:00;;;;;;;3.38;2.50;;;19.90;99.90;;;;;;4871046;23;20835;-91
2021/06/25 12:30:39;;;;;;;2.70;2.50;;;19.80;99.90;;;;;;4946417;29;20043;-93
2021/06/25 12:33:29;;;;;;;2.00;1.67;;;19.90;99.90;;;;;;4930968;29;20059;-91
2021/06/25 12:35:57;;;;;;;1.73;1.60;;;19.70;99.90;;;;;;4934736;29;20039;-92
2021/06/25 12:38:32;;;;;;;2.70;1.92;;;19.10;99.90;;;;;;4930480;29;20052;-90
2021/06/25 12:41:07;;;;;;;3.17;1.70;;;18.60;99.90;;;;;;4926183;29;20047;-91
2021/06/25 12:43:39;;;;;;;1.85;1.60;;;18.20;99.90;;;;;;4964375;28;20078;-90
2021/06/25 12:46:10;;;;;;;1.85;1.70;;;18.00;99.90;;;;;;4969761;28;20051;-88
2021/06/25 12:48:49;;;;;;;2.20;1.85;;;18.10;99.90;;;;;;4979404;28;20042;-91
2021/06/25 12:51:21;;;;;;;2.28;1.70;;;18.20;99.90;;;;;;4968227;28;20050;-92
2021/06/25 12:53:49;;;;;;;;;;;18.30;99.90;;;;;;4985751;28;20349;-89
2021/06/25 12:56:22;;;;;;;1.60;1.50;;;18.30;99.90;;;;;;4972996;28;19922;-90
2021/06/25 12:59:35;;;;;;;5.63;2.13;;;18.30;99.90;;;;;;4987759;28;20138;-91
2021/06/25 13:02:03;;;;;;;2.08;1.98;;;18.30;99.90;;;;;;4974117;28;20050;-90
2021/06/25 13:04:32;;;;;;;4.75;2.05;;;18.30;99.90;;;;;;4986698;28;20050;-90
2021/06/25 13:07:09;;;;;;;2.72;1.90;;;18.20;99.90;;;;;;4974955;28;20492;-90
2021/06/25 13:09:38;;;;;;;2.30;2.05;;;18.30;99.90;;;;;;4989847;28;20066;-90
2021/06/25 13:12:39;;;;;;;2.58;2.35;;;18.60;99.90;;;;;;4978010;28;20121;-92
2021/06/25 13:15:06;;;;;;;3.92;2.08;;;18.90;99.90;;;;;;4978494;28;20057;-91
2021/06/25 13:17:36;;;;;;;1.90;1.80;;;19.10;99.90;;;;;;4980343;28;20109;-91
2021/06/25 13:20:24;;;;;;;2.03;1.83;;;19.40;99.90;;;;;;4988939;28;20130;-91
2021/06/25 13:23:10;;;;;;;2.90;1.77;;;19.50;99.90;;;;;;4979990;28;20426;-90
2021/06/25 13:25:43;;;;;;;4.18;1.70;;;19.70;99.90;;;;;;4969701;28;20129;-91
2021/06/25 13:28:11;;;;;;;1.60;1.50;;;19.80;99.90;;;;;;4988422;28;20043;-91
2021/06/25 13:30:40;;;;;;;1.83;1.60;;;19.90;99.90;;;;;;4992372;28;20397;-92
2021/06/25 13:33:17;;;;;;;2.45;1.83;;;20.10;99.90;;;;;;4977750;28;20462;-91
2021/06/25 13:35:46;;;;;;;2.92;1.50;;;20.30;99.90;;;;;;4971324;28;20386;-91
2021/06/25 13:38:24;;;;;;;2.20;1.67;;;20.50;99.90;;;;;;4985525;28;20093;-90
2021/06/25 13:40:58;;;;;;;1.73;1.63;;;20.80;99.90;;;;;;4988841;28;20060;-90
2021/06/25 13:43:27;;;;;;;1.75;1.65;;;20.70;99.90;;;;;;4989288;28;20525;-92
2021/06/25 13:46:19;;;;;;;2.80;2.13;;;20.70;99.90;;;;;;4982049;28;20138;-90
2021/06/25 13:49:08;;;;;;;6.88;2.65;;;20.60;99.90;;;;;;4988724;28;20129;-92
2021/06/25 13:51:37;;;;;;;3.35;2.33;;;20.60;99.90;;;;;;4977544;28;20065;-92
2021/06/25 13:54:18;;;;;;;2.35;2.08;;;20.70;99.90;;;;;;4992010;28;20062;-91
2021/06/25 13:56:56;;;;;;;2.50;2.30;;;20.80;99.90;;;;;;4992041;28;20078;-90
2021/06/25 13:59:38;;;;;;;2.30;1.65;;;20.90;99.90;;;;;;4993000;28;20473;-92
2021/06/25 14:02:06;;;;;;;2.60;2.10;;;21.00;99.90;;;;;;4992467;28;20127;-91
2021/06/25 14:04:33;;;;;;;2.53;2.10;;;21.00;99.90;;;;;;4990151;28;20052;-91
2021/06/25 14:07:02;;;;;;;2.47;2.28;;;20.80;99.90;;;;;;4993515;28;20518;-90
2021/06/25 14:09:33;;;;;;;5.30;2.45;;;20.30;99.90;;;;;;4986191;28;20058;-89
2021/06/25 14:12:11;;;;;;;2.83;2.23;;;19.50;99.90;;;;;;4995326;28;20046;-91
2021/06/25 14:14:47;;;;;;;2.90;2.35;;;19.40;99.90;;;;;;4992471;28;20683;-90
2021/06/25 14:17:14;;;;;;;3.15;2.60;;;19.30;99.90;;;;;;4980131;28;20061;-89
2021/06/25 14:19:42;;;;;;;4.57;2.80;;;19.10;99.90;;;;;;4986707;28;20491;-90
2021/06/25 14:22:09;;;;;;;3.75;2.70;;;19.00;99.90;;;;;;4989089;28;20377;-90
2021/06/25 14:24:38;;;;;;;2.80;2.47;;;18.90;99.90;;;;;;4965838;28;20065;-90
2021/06/25 14:27:06;;;;;;;4.13;2.63;;;18.80;99.90;;;;;;4966614;28;20117;-89
2021/06/25 14:29:33;;;;;;;2.83;2.63;;;18.50;99.90;;;;;;4969766;28;20070;-90
2021/06/25 14:32:02;;;;;;;3.78;3.15;;;18.50;99.90;;;;;;4955911;28;20058;-89
2021/06/25 14:34:32;;;;;;;5.40;2.92;;;18.60;99.90;;;;;;4968593;28;20086;-90
2021/06/25 14:36:59;;;;;;;3.47;3.17;;;18.50;99.90;;;;;;4967560;28;20088;-89
2021/06/25 14:39:25;;;;;;;3.75;3.28;;;18.50;99.90;;;;;;4955736;28;20154;-89
2021/06/25 14:41:54;;;;;;;3.38;3.08;;;18.50;99.90;;;;;;4974894;28;20043;-89
2021/06/25 14:44:23;;;;;;;3.78;3.47;;;18.60;99.90;;;;;;4966435;28;20050;-89
2021/06/25 14:46:51;;;;;;;3.88;3.22;;;18.60;99.90;;;;;;4964028;28;20474;-89
2021/06/25 14:49:24;;;;;;;3.40;3.10;;;18.60;99.90;;;;;;4959187;28;20057;-89
2021/06/25 14:51:51;;;;;;;4.93;3.15;;;18.80;99.90;;;;;;4969779;28;20405;-88
2021/06/25 14:54:18;;;;;;;3.85;3.25;;;19.10;99.90;;;;;;4958103;28;20051;-89
2021/06/25 14:56:45;;;;;;;6.22;3.20;;;19.40;99.90;;;;;;4960664;28;20081;-90
2021/06/25 14:59:12;;;;;;;7.53;3.38;;;19.60;99.90;;;;;;4972686;28;20047;-88
2021/06/25 15:01:39;;;;;;;3.20;2.92;;;19.90;99.90;;;;;;4971587;28;20517;-89
2021/06/25 15:04:06;;;;;;;6.57;2.90;;;20.40;99.90;;;;;;4955200;28;20376;-89
2021/06/25 15:06:33;;;;;;;3.28;2.47;;;20.90;99.90;;;;;;4971065;28;20575;-87
2021/06/25 15:09:00;;;;;;;6.38;3.00;;;21.20;99.90;;;;;;4971524;28;20043;-89
2021/06/25 15:11:30;;;;;;;7.32;2.75;;;21.50;99.90;;;;;;4965429;28;20137;-88
2021/06/25 15:13:57;;;;;;;2.80;2.50;;;21.70;99.90;;;;;;4969017;28;20113;-89
2021/06/25 15:16:24;;;;;;;2.72;2.50;;;21.90;99.90;;;;;;4974185;28;20055;-91
2021/06/25 15:18:51;;;;;;;2.72;2.53;;;21.90;99.90;;;;;;4973430;28;20099;-91
2021/06/25 15:21:18;;;;;;;3.85;2.83;;;22.00;99.90;;;;;;4960475;28;20093;-89
2021/06/25 15:23:45;;;;;;;3.42;3.00;;;22.00;99.90;;;;;;4954420;28;20418;-89
2021/06/25 15:26:16;;;;;;;4.97;2.90;;;21.90;99.90;;;;;;4973274;28;20062;-89
2021/06/25 15:28:43;;;;;;;9.15;5.53;;;21.90;99.90;;;;;;4990275;28;20046;-90
2021/06/25 15:31:11;;;;;;;3.55;3.25;;;21.90;99.90;;;;;;4990540;28;20152;-90
2021/06/25 15:33:41;;;;;;;5.82;3.40;;;22.00;99.90;;;;;;4988283;28;20544;-87
2021/06/25 15:36:08;;;;;;;7.40;3.30;;;22.30;99.90;;;;;;4986729;28;20054;-90
2021/06/25 15:38:37;;;;;;;5.47;3.13;;;22.60;99.90;;;;;;4981622;28;20070;-89
2021/06/25 15:41:06;;;;;;;9.95;4.35;;;23.30;99.90;;;;;;4973573;28;20057;-90
2021/06/25 15:43:33;;;;;;;6.68;2.60;;;24.30;99.90;;;;;;4972203;28;20205;-87
2021/06/25 15:46:02;;;;;;;2.83;2.63;;;25.30;97.60;;;;;;4986292;28;20069;-88
2021/06/25 15:48:29;;;;;;;4.28;2.83;;;25.60;92.30;;;;;;4963349;28;20117;-89
2021/06/25 15:51:12;;;;;;;3.38;2.50;;;25.40;89.50;;;;;;4970579;28;20572;-89
2021/06/25 15:53:39;;;;;;;4.85;2.88;;;25.00;89.70;;;;;;4983671;28;20047;-88
2021/06/25 15:56:07;;;;;;;3.03;2.72;;;24.20;91.30;;;;;;4986707;28;20066;-88
2021/06/25 15:58:36;;;;;;;3.58;3.28;;;23.50;94.00;;;;;;4988761;28;20075;-88
2021/06/25 16:01:03;;;;;;;4.03;3.00;;;22.90;96.90;;;;;;4985154;28;20474;-91
2021/06/25 16:03:32;;;;;;;4.95;3.40;;;22.90;97.90;;;;;;4985539;28;20046;-89
2021/06/25 16:05:59;;;;;;;3.65;3.00;;;23.00;98.60;;;;;;4983165;28;20043;-89
2021/06/25 16:08:35;;;;;;;6.55;3.20;;;23.30;98.30;;;;;;4975179;28;20432;-88
2021/06/25 16:11:05;;;;;;;7.32;3.40;;;23.50;96.40;;;;;;4976259;28;20146;-90
2021/06/25 16:13:37;;;;;;;6.18;3.17;;;23.40;95.70;;;;;;4991690;28;20126;-89
2021/06/25 16:16:05;;;;;;;5.22;3.13;;;23.20;97.50;;;;;;4971947;28;20502;-90
2021/06/25 16:18:33;;;;;;;3.33;3.03;;;22.90;95.60;;;;;;4992781;28;20097;-89
2021/06/25 16:21:04;;;;;;;4.65;3.33;;;22.90;96.90;;;;;;4991572;28;20093;-92
2021/06/25 16:23:31;;;;;;;3.20;2.80;;;22.70;97.60;;;;;;4982566;28;20134;-90
2021/06/25 16:25:59;;;;;;;4.40;3.42;;;22.70;98.20;;;;;;4993480;28;20180;-89
2021/06/25 16:28:26;;;;;;;4.35;3.05;;;22.60;97.10;;;;;;4989851;28;20129;-88
2021/06/25 16:30:53;;;;;;;4.47;4.07;;;22.60;98.90;;;;;;4992102;28;20137;-89
2021/06/25 16:33:21;;;;;;;4.25;3.50;;;22.60;99.60;;;;;;4974788;28;20046;-88
2021/06/25 16:35:47;;;;;;;4.57;3.63;;;22.50;99.50;;;;;;4983828;28;20130;-91
2021/06/25 16:38:18;;;;;;;3.55;2.90;;;22.40;97.10;;;;;;4969534;28;20073;-89
2021/06/25 16:40:44;;;;;;;6.57;3.28;;;22.10;97.70;;;;;;4977732;28;20046;-92
2021/06/25 16:43:11;;;;;;;5.03;3.30;;;21.50;99.90;;;;;;4994320;28;20133;-90
2021/06/25 16:45:38;;;;;;;4.38;3.70;;;21.10;99.90;;;;;;4961407;28;20081;-90
2021/06/25 16:48:06;;;;;;;4.80;3.80;;;20.70;99.90;;;;;;4991183;28;20050;-88
2021/06/25 16:50:53;;;;;;;7.93;4.13;;;20.30;99.90;;;;;;4990197;28;20053;-89
2021/06/25 16:53:22;;;;;;;4.18;3.78;;;19.90;99.90;;;;;;4973656;28;20113;-88
2021/06/25 16:55:50;;;;;;;8.52;4.10;;;19.60;99.90;;;;;;4982675;28;20046;-90